MSC Aniello — 3FYW9 — position and weather

sailwx.info

Track history (hours):
 
Tides and Currents Weather Stations Pressure Air Temp Water Temp Dewpoint Dewpoint Depression Visibility Wind Speed Wind Dir Waves Ship Positions

MSC Aniello

Last reported at 2018-Apr-15 14:19 UTC. Time now 2018-Apr-19 17:26 UTC.
Position N 46°04' W 073°03'.

Length 259 m; draft 10.6 m.

Type: Ship (hazmat cat D). MMSI: 357506000.

Date/timePositionNaut miles runAvg speedWind from/ knotsBaromVisibWave heightAir tempDewpointWater temp
2018-Apr-15 14:19N 46°04' W 073°03'411.7
2018-Apr-15 14:00N 46°03' W 073°09'  
2018-Apr-12 15:45N 46°01' W 073°10'2 9.9
2018-Apr-12 15:30N 46°03' W 073°08'5 9.9
2018-Apr-12 15:00N 46°05' W 073°01'88 8.8
2018-Apr-12 04:58N 46°49' W 071°12'  
2018-Apr-05 21:10N 36°10' W 026°18'316.2
2018-Apr-05 21:00N 36°10' W 026°15'815.3
2018-Apr-05 20:31N 36°09' W 026°05'815.3
2018-Apr-05 20:00N 36°08' W 025°56'715.2
2018-Apr-05 19:30N 36°07' W 025°47'815.4
2018-Apr-05 19:01N 36°06' W 025°37'815.4
2018-Apr-05 18:30N 36°05' W 025°28'815.4
2018-Apr-05 18:00N 36°04' W 025°18'815.4
2018-Apr-05 17:30N 36°03' W 025°09'815.5
2018-Apr-05 17:00N 36°03' W 024°59'815.8
2018-Apr-05 16:30N 36°02' W 024°49'816.5
2018-Apr-05 16:01N 36°02' W 024°39'816.8
2018-Apr-05 15:30N 36°01' W 024°29'816.7
2018-Apr-05 15:00N 36°01' W 024°19'816.9
2018-Apr-05 14:30N 36°01' W 024°08'  
Track history (hours):
 
Tides and Currents Weather Stations Pressure Air Temp Water Temp Dewpoint Dewpoint Depression Visibility Wind Speed Wind Dir Waves Ship Positions

MSC Aniello

Last reported at 2018-Apr-15 14:19 UTC. Time now 2018-Apr-19 17:26 UTC.
Position N 46°04' W 073°03'.

Length 259 m; draft 10.6 m.

Type: Ship (hazmat cat D). MMSI: 357506000.

Date/timePositionNaut miles runAvg speedWind from/ knotsBaromVisibWave heightAir tempDewpointWater temp
2018-Apr-15 14:19N 46°04' W 073°03'411.7
2018-Apr-15 14:00N 46°03' W 073°09'  
2018-Apr-12 15:45N 46°01' W 073°10'2 9.9
2018-Apr-12 15:30N 46°03' W 073°08'5 9.9
2018-Apr-12 15:00N 46°05' W 073°01'88 8.8
2018-Apr-12 04:58N 46°49' W 071°12'  
2018-Apr-05 21:10N 36°10' W 026°18'316.2
2018-Apr-05 21:00N 36°10' W 026°15'815.3
2018-Apr-05 20:31N 36°09' W 026°05'815.3
2018-Apr-05 20:00N 36°08' W 025°56'715.2
2018-Apr-05 19:30N 36°07' W 025°47'815.4
2018-Apr-05 19:01N 36°06' W 025°37'815.4
2018-Apr-05 18:30N 36°05' W 025°28'815.4
2018-Apr-05 18:00N 36°04' W 025°18'815.4
2018-Apr-05 17:30N 36°03' W 025°09'815.5
2018-Apr-05 17:00N 36°03' W 024°59'815.8
2018-Apr-05 16:30N 36°02' W 024°49'816.5
2018-Apr-05 16:01N 36°02' W 024°39'816.8
2018-Apr-05 15:30N 36°01' W 024°29'816.7
2018-Apr-05 15:00N 36°01' W 024°19'816.9
2018-Apr-05 14:30N 36°01' W 024°08'  

Dump ship's entire track history